sensor_id;sensor_type;location;lat;lon;timestamp;temperature;humidity
66608;DHT22;53462;39.616;8.824;2023-11-19T00:00:50;12.50;99.90
66608;DHT22;53462;39.616;8.824;2023-11-19T00:03:17;12.30;99.90
66608;DHT22;53462;39.616;8.824;2023-11-19T00:05:43;12.20;99.90
66608;DHT22;53462;39.616;8.824;2023-11-19T00:08:10;12.10;99.90
66608;DHT22;53462;39.616;8.824;2023-11-19T00:10:36;12.20;99.90
66608;DHT22;53462;39.616;8.824;2023-11-19T00:13:02;12.20;99.90
66608;DHT22;53462;39.616;8.824;2023-11-19T00:15:30;12.20;99.90
66608;DHT22;53462;39.616;8.824;2023-11-19T00:17:56;12.20;99.90
66608;DHT22;53462;39.616;8.824;2023-11-19T00:20:22;12.20;99.90
66608;DHT22;53462;39.616;8.824;2023-11-19T00:22:48;12.20;99.90
66608;DHT22;53462;39.616;8.824;2023-11-19T00:25:20;12.30;99.90
66608;DHT22;53462;39.616;8.824;2023-11-19T00:27:47;12.50;99.90
66608;DHT22;53462;39.616;8.824;2023-11-19T00:30:13;12.50;99.90
66608;DHT22;53462;39.616;8.824;2023-11-19T00:32:40;12.50;99.90
66608;DHT22;53462;39.616;8.824;2023-11-19T00:35:07;12.40;99.90
66608;DHT22;53462;39.616;8.824;2023-11-19T00:37:33;12.40;99.90
66608;DHT22;53462;39.616;8.824;2023-11-19T00:39:59;12.50;99.90
66608;DHT22;53462;39.616;8.824;2023-11-19T00:42:25;12.50;99.90
66608;DHT22;53462;39.616;8.824;2023-11-19T00:44:51;12.60;99.90
66608;DHT22;53462;39.616;8.824;2023-11-19T00:47:17;12.70;99.90
66608;DHT22;53462;39.616;8.824;2023-11-19T00:49:47;12.80;99.90
66608;DHT22;53462;39.616;8.824;2023-11-19T00:52:16;12.80;99.90
66608;DHT22;53462;39.616;8.824;2023-11-19T00:54:43;12.90;99.90
66608;DHT22;53462;39.616;8.824;2023-11-19T00:57:08;12.80;99.90
66608;DHT22;53462;39.616;8.824;2023-11-19T00:59:34;12.70;99.90
66608;DHT22;53462;39.616;8.824;2023-11-19T01:02:00;12.60;99.90
66608;DHT22;53462;39.616;8.824;2023-11-19T01:04:34;12.70;99.90
66608;DHT22;53462;39.616;8.824;2023-11-19T01:07:02;12.70;99.90
66608;DHT22;53462;39.616;8.824;2023-11-19T01:09:30;12.80;99.90
66608;DHT22;53462;39.616;8.824;2023-11-19T01:11:58;12.70;99.90
66608;DHT22;53462;39.616;8.824;2023-11-19T01:14:27;12.60;99.90
66608;DHT22;53462;39.616;8.824;2023-11-19T01:16:52;12.50;99.90
66608;DHT22;53462;39.616;8.824;2023-11-19T01:19:23;12.40;99.90
66608;DHT22;53462;39.616;8.824;2023-11-19T01:21:50;12.30;99.90
66608;DHT22;53462;39.616;8.824;2023-11-19T01:24:17;12.50;99.90
66608;DHT22;53462;39.616;8.824;2023-11-19T01:26:43;12.60;99.90
66608;DHT22;53462;39.616;8.824;2023-11-19T01:29:13;12.70;99.90
66608;DHT22;53462;39.616;8.824;2023-11-19T01:31:46;12.70;99.90
66608;DHT22;53462;39.616;8.824;2023-11-19T01:34:16;12.80;99.90
66608;DHT22;53462;39.616;8.824;2023-11-19T01:36:42;12.90;99.90
66608;DHT22;53462;39.616;8.824;2023-11-19T01:39:08;13.00;99.90
66608;DHT22;53462;39.616;8.824;2023-11-19T01:41:37;13.00;99.90
66608;DHT22;53462;39.616;8.824;2023-11-19T01:44:06;13.00;99.90
66608;DHT22;53462;39.616;8.824;2023-11-19T01:46:32;12.90;99.90
66608;DHT22;53462;39.616;8.824;2023-11-19T01:48:59;12.80;99.90
66608;DHT22;53462;39.616;8.824;2023-11-19T01:51:25;12.80;99.90
66608;DHT22;53462;39.616;8.824;2023-11-19T01:53:52;12.90;99.90
66608;DHT22;53462;39.616;8.824;2023-11-19T01:56:18;13.10;99.90
66608;DHT22;53462;39.616;8.824;2023-11-19T01:58:46;13.10;99.90
66608;DHT22;53462;39.616;8.824;2023-11-19T02:01:14;13.10;99.90
66608;DHT22;53462;39.616;8.824;2023-11-19T02:03:40;13.10;99.90
66608;DHT22;53462;39.616;8.824;2023-11-19T02:06:07;13.10;99.90
66608;DHT22;53462;39.616;8.824;2023-11-19T02:08:33;13.10;99.90
66608;DHT22;53462;39.616;8.824;2023-11-19T02:10:59;13.20;99.90
66608;DHT22;53462;39.616;8.824;2023-11-19T02:13:26;13.10;99.90
66608;DHT22;53462;39.616;8.824;2023-11-19T02:15:52;13.20;99.90
66608;DHT22;53462;39.616;8.824;2023-11-19T02:18:19;13.30;99.90
66608;DHT22;53462;39.616;8.824;2023-11-19T02:20:46;13.30;99.90
66608;DHT22;53462;39.616;8.824;2023-11-19T02:23:13;13.30;99.90
66608;DHT22;53462;39.616;8.824;2023-11-19T02:25:40;13.30;99.90
66608;DHT22;53462;39.616;8.824;2023-11-19T02:28:06;13.30;99.90
66608;DHT22;53462;39.616;8.824;2023-11-19T02:30:33;13.30;99.90
66608;DHT22;53462;39.616;8.824;2023-11-19T02:32:59;13.10;99.90
66608;DHT22;53462;39.616;8.824;2023-11-19T02:35:28;13.10;99.90
66608;DHT22;53462;39.616;8.824;2023-11-19T02:37:58;13.10;99.90
66608;DHT22;53462;39.616;8.824;2023-11-19T02:40:25;13.20;99.90
66608;DHT22;53462;39.616;8.824;2023-11-19T02:42:52;13.30;99.90
66608;DHT22;53462;39.616;8.824;2023-11-19T02:45:18;13.40;99.90
66608;DHT22;53462;39.616;8.824;2023-11-19T02:47:44;13.20;99.90
66608;DHT22;53462;39.616;8.824;2023-11-19T02:50:10;13.10;99.90
66608;DHT22;53462;39.616;8.824;2023-11-19T02:52:44;13.00;99.90
66608;DHT22;53462;39.616;8.824;2023-11-19T02:55:12;13.10;99.90
66608;DHT22;53462;39.616;8.824;2023-11-19T02:57:41;13.10;99.90
66608;DHT22;53462;39.616;8.824;2023-11-19T03:00:22;12.90;99.90
66608;DHT22;53462;39.616;8.824;2023-11-19T03:03:03;12.80;99.90
66608;DHT22;53462;39.616;8.824;2023-11-19T03:05:49;12.90;99.90
66608;DHT22;53462;39.616;8.824;2023-11-19T03:08:18;13.00;99.90
66608;DHT22;53462;39.616;8.824;2023-11-19T03:10:43;13.10;99.90
66608;DHT22;53462;39.616;8.824;2023-11-19T03:13:12;13.00;99.90
66608;DHT22;53462;39.616;8.824;2023-11-19T03:15:41;13.00;99.90
66608;DHT22;53462;39.616;8.824;2023-11-19T03:18:07;13.00;99.90
66608;DHT22;53462;39.616;8.824;2023-11-19T03:20:34;13.00;99.90
66608;DHT22;53462;39.616;8.824;2023-11-19T03:23:00;13.10;99.90
66608;DHT22;53462;39.616;8.824;2023-11-19T03:25:27;13.20;99.90
66608;DHT22;53462;39.616;8.824;2023-11-19T03:27:59;13.30;99.90
66608;DHT22;53462;39.616;8.824;2023-11-19T03:30:26;13.30;99.90
66608;DHT22;53462;39.616;8.824;2023-11-19T03:32:54;13.40;99.90
66608;DHT22;53462;39.616;8.824;2023-11-19T03:35:21;13.40;99.90
66608;DHT22;53462;39.616;8.824;2023-11-19T03:37:47;13.30;99.90
66608;DHT22;53462;39.616;8.824;2023-11-19T03:40:13;13.40;99.90
66608;DHT22;53462;39.616;8.824;2023-11-19T03:42:40;13.40;99.90
66608;DHT22;53462;39.616;8.824;2023-11-19T03:45:07;13.50;99.90
66608;DHT22;53462;39.616;8.824;2023-11-19T03:47:36;13.60;99.90
66608;DHT22;53462;39.616;8.824;2023-11-19T03:50:02;13.60;99.90
66608;DHT22;53462;39.616;8.824;2023-11-19T03:52:28;13.60;99.90
66608;DHT22;53462;39.616;8.824;2023-11-19T03:54:55;13.50;99.90
66608;DHT22;53462;39.616;8.824;2023-11-19T03:57:23;13.60;99.90
66608;DHT22;53462;39.616;8.824;2023-11-19T03:59:48;13.60;99.90
66608;DHT22;53462;39.616;8.824;2023-11-19T04:02:15;13.50;99.90
66608;DHT22;53462;39.616;8.824;2023-11-19T04:04:41;13.40;99.90
66608;DHT22;53462;39.616;8.824;2023-11-19T04:07:07;13.40;99.90
66608;DHT22;53462;39.616;8.824;2023-11-19T04:09:33;13.50;99.90
66608;DHT22;53462;39.616;8.824;2023-11-19T04:12:00;13.60;99.90
66608;DHT22;53462;39.616;8.824;2023-11-19T04:14:26;13.70;99.90
66608;DHT22;53462;39.616;8.824;2023-11-19T04:16:52;13.70;99.90
66608;DHT22;53462;39.616;8.824;2023-11-19T04:19:21;13.80;99.90
66608;DHT22;53462;39.616;8.824;2023-11-19T04:21:47;13.90;99.90
66608;DHT22;53462;39.616;8.824;2023-11-19T04:24:13;13.90;99.90
66608;DHT22;53462;39.616;8.824;2023-11-19T04:26:43;14.00;99.90
66608;DHT22;53462;39.616;8.824;2023-11-19T04:29:15;13.90;99.90
66608;DHT22;53462;39.616;8.824;2023-11-19T04:31:43;13.90;99.90
66608;DHT22;53462;39.616;8.824;2023-11-19T04:34:10;13.90;99.90
66608;DHT22;53462;39.616;8.824;2023-11-19T04:36:37;13.90;99.90
66608;DHT22;53462;39.616;8.824;2023-11-19T04:39:03;13.90;99.90
66608;DHT22;53462;39.616;8.824;2023-11-19T04:41:35;13.90;99.90
66608;DHT22;53462;39.616;8.824;2023-11-19T04:44:02;13.90;99.90
66608;DHT22;53462;39.616;8.824;2023-11-19T04:46:28;13.90;99.90
66608;DHT22;53462;39.616;8.824;2023-11-19T04:48:54;13.80;99.90
66608;DHT22;53462;39.616;8.824;2023-11-19T04:51:19;13.70;99.90
66608;DHT22;53462;39.616;8.824;2023-11-19T04:53:45;13.70;99.90
66608;DHT22;53462;39.616;8.824;2023-11-19T04:56:11;13.80;99.90
66608;DHT22;53462;39.616;8.824;2023-11-19T04:58:39;13.80;99.90
66608;DHT22;53462;39.616;8.824;2023-11-19T05:01:05;13.80;99.90
66608;DHT22;53462;39.616;8.824;2023-11-19T05:03:31;13.90;99.90
66608;DHT22;53462;39.616;8.824;2023-11-19T05:05:58;13.90;99.90
66608;DHT22;53462;39.616;8.824;2023-11-19T05:08:24;13.90;99.90
66608;DHT22;53462;39.616;8.824;2023-11-19T05:10:49;13.90;99.90
66608;DHT22;53462;39.616;8.824;2023-11-19T05:13:15;14.00;99.90
66608;DHT22;53462;39.616;8.824;2023-11-19T05:15:42;13.90;99.90
66608;DHT22;53462;39.616;8.824;2023-11-19T05:18:08;13.60;99.90
66608;DHT22;53462;39.616;8.824;2023-11-19T05:20:34;13.50;99.90
66608;DHT22;53462;39.616;8.824;2023-11-19T05:23:00;13.50;99.90
66608;DHT22;53462;39.616;8.824;2023-11-19T05:25:29;13.40;99.90
66608;DHT22;53462;39.616;8.824;2023-11-19T05:27:55;13.30;99.90
66608;DHT22;53462;39.616;8.824;2023-11-19T05:30:21;13.20;99.90
66608;DHT22;53462;39.616;8.824;2023-11-19T05:32:47;13.20;99.90
66608;DHT22;53462;39.616;8.824;2023-11-19T05:35:12;13.10;99.90
66608;DHT22;53462;39.616;8.824;2023-11-19T05:37:38;13.00;99.90
66608;DHT22;53462;39.616;8.824;2023-11-19T05:40:06;13.00;99.90
66608;DHT22;53462;39.616;8.824;2023-11-19T05:42:43;12.90;99.90
66608;DHT22;53462;39.616;8.824;2023-11-19T05:45:12;12.80;99.90
66608;DHT22;53462;39.616;8.824;2023-11-19T05:47:38;12.70;99.90
66608;DHT22;53462;39.616;8.824;2023-11-19T05:50:04;12.70;99.90
66608;DHT22;53462;39.616;8.824;2023-11-19T05:52:31;12.70;99.90
66608;DHT22;53462;39.616;8.824;2023-11-19T05:55:02;12.70;99.90
66608;DHT22;53462;39.616;8.824;2023-11-19T05:57:30;12.80;99.90
66608;DHT22;53462;39.616;8.824;2023-11-19T05:59:56;12.80;99.90
66608;DHT22;53462;39.616;8.824;2023-11-19T06:02:24;12.70;99.90
66608;DHT22;53462;39.616;8.824;2023-11-19T06:04:50;12.70;99.90
66608;DHT22;53462;39.616;8.824;2023-11-19T06:07:15;12.70;99.90
66608;DHT22;53462;39.616;8.824;2023-11-19T06:09:41;12.60;99.90
66608;DHT22;53462;39.616;8.824;2023-11-19T06:12:08;12.60;99.90
66608;DHT22;53462;39.616;8.824;2023-11-19T06:14:33;12.70;99.90
66608;DHT22;53462;39.616;8.824;2023-11-19T06:16:59;12.70;99.90
66608;DHT22;53462;39.616;8.824;2023-11-19T06:19:25;12.70;99.90
66608;DHT22;53462;39.616;8.824;2023-11-19T06:21:51;12.70;99.90
66608;DHT22;53462;39.616;8.824;2023-11-19T06:24:17;12.70;99.90
66608;DHT22;53462;39.616;8.824;2023-11-19T06:26:43;12.80;99.90
66608;DHT22;53462;39.616;8.824;2023-11-19T06:29:08;12.80;99.90
66608;DHT22;53462;39.616;8.824;2023-11-19T06:31:34;12.90;99.90
66608;DHT22;53462;39.616;8.824;2023-11-19T06:34:00;12.70;99.90
66608;DHT22;53462;39.616;8.824;2023-11-19T06:36:26;12.90;99.90
66608;DHT22;53462;39.616;8.824;2023-11-19T06:38:52;12.90;99.90
66608;DHT22;53462;39.616;8.824;2023-11-19T06:41:18;12.90;99.90
66608;DHT22;53462;39.616;8.824;2023-11-19T06:43:44;13.00;99.90
66608;DHT22;53462;39.616;8.824;2023-11-19T06:46:16;12.80;99.90
66608;DHT22;53462;39.616;8.824;2023-11-19T06:48:43;12.80;99.90
66608;DHT22;53462;39.616;8.824;2023-11-19T06:51:10;13.10;99.90
66608;DHT22;53462;39.616;8.824;2023-11-19T06:53:36;13.20;99.90
66608;DHT22;53462;39.616;8.824;2023-11-19T06:56:02;13.30;99.90
66608;DHT22;53462;39.616;8.824;2023-11-19T06:58:35;13.40;99.90
66608;DHT22;53462;39.616;8.824;2023-11-19T07:01:01;13.60;99.90
66608;DHT22;53462;39.616;8.824;2023-11-19T07:03:27;13.60;99.90
66608;DHT22;53462;39.616;8.824;2023-11-19T07:05:53;13.60;99.90
66608;DHT22;53462;39.616;8.824;2023-11-19T07:08:19;13.70;99.90
66608;DHT22;53462;39.616;8.824;2023-11-19T07:10:45;13.80;99.90
66608;DHT22;53462;39.616;8.824;2023-11-19T07:13:13;13.80;99.90
66608;DHT22;53462;39.616;8.824;2023-11-19T07:15:38;13.80;99.90
66608;DHT22;53462;39.616;8.824;2023-11-19T07:18:04;14.00;99.90
66608;DHT22;53462;39.616;8.824;2023-11-19T07:20:30;14.10;99.90
66608;DHT22;53462;39.616;8.824;2023-11-19T07:22:56;14.20;99.90
66608;DHT22;53462;39.616;8.824;2023-11-19T07:25:22;14.50;99.90
66608;DHT22;53462;39.616;8.824;2023-11-19T07:27:49;14.50;99.90
66608;DHT22;53462;39.616;8.824;2023-11-19T07:30:14;14.50;99.90
66608;DHT22;53462;39.616;8.824;2023-11-19T07:32:40;14.40;99.90
66608;DHT22;53462;39.616;8.824;2023-11-19T07:35:06;14.50;99.90
66608;DHT22;53462;39.616;8.824;2023-11-19T07:37:32;14.30;99.90
66608;DHT22;53462;39.616;8.824;2023-11-19T07:39:58;14.30;99.90
66608;DHT22;53462;39.616;8.824;2023-11-19T07:42:24;14.40;99.90
66608;DHT22;53462;39.616;8.824;2023-11-19T07:44:50;14.60;99.90
66608;DHT22;53462;39.616;8.824;2023-11-19T07:47:16;14.80;99.90
66608;DHT22;53462;39.616;8.824;2023-11-19T07:49:42;15.00;99.90
66608;DHT22;53462;39.616;8.824;2023-11-19T07:52:09;15.10;99.90
66608;DHT22;53462;39.616;8.824;2023-11-19T07:54:35;15.40;99.90
66608;DHT22;53462;39.616;8.824;2023-11-19T07:57:01;15.50;99.90
66608;DHT22;53462;39.616;8.824;2023-11-19T07:59:27;15.70;99.90
66608;DHT22;53462;39.616;8.824;2023-11-19T08:01:52;16.00;99.90
66608;DHT22;53462;39.616;8.824;2023-11-19T08:04:18;16.10;99.90
66608;DHT22;53462;39.616;8.824;2023-11-19T08:06:44;16.40;99.90
66608;DHT22;53462;39.616;8.824;2023-11-19T08:09:11;16.60;99.90
66608;DHT22;53462;39.616;8.824;2023-11-19T08:11:40;16.80;99.90
66608;DHT22;53462;39.616;8.824;2023-11-19T08:14:06;17.00;99.90
66608;DHT22;53462;39.616;8.824;2023-11-19T08:16:32;17.10;99.90
66608;DHT22;53462;39.616;8.824;2023-11-19T08:18:58;19.70;99.80
66608;DHT22;53462;39.616;8.824;2023-11-19T08:21:24;19.50;94.70
66608;DHT22;53462;39.616;8.824;2023-11-19T08:23:50;18.90;93.80
66608;DHT22;53462;39.616;8.824;2023-11-19T08:26:15;18.30;96.90
66608;DHT22;53462;39.616;8.824;2023-11-19T08:28:41;17.90;99.40
66608;DHT22;53462;39.616;8.824;2023-11-19T08:31:07;17.80;99.90
66608;DHT22;53462;39.616;8.824;2023-11-19T08:33:33;17.90;99.90
66608;DHT22;53462;39.616;8.824;2023-11-19T08:35:59;17.90;99.90
66608;DHT22;53462;39.616;8.824;2023-11-19T08:38:25;17.80;99.90
66608;DHT22;53462;39.616;8.824;2023-11-19T08:40:51;17.60;99.90
66608;DHT22;53462;39.616;8.824;2023-11-19T08:43:17;17.70;99.90
66608;DHT22;53462;39.616;8.824;2023-11-19T08:45:43;17.80;99.90
66608;DHT22;53462;39.616;8.824;2023-11-19T08:48:09;18.00;99.90
66608;DHT22;53462;39.616;8.824;2023-11-19T08:50:35;18.20;99.40
66608;DHT22;53462;39.616;8.824;2023-11-19T08:53:01;19.70;95.30
66608;DHT22;53462;39.616;8.824;2023-11-19T08:55:27;19.90;94.40
66608;DHT22;53462;39.616;8.824;2023-11-19T08:57:52;20.00;90.70
66608;DHT22;53462;39.616;8.824;2023-11-19T09:00:18;20.60;93.30
66608;DHT22;53462;39.616;8.824;2023-11-19T09:02:44;21.30;87.20
66608;DHT22;53462;39.616;8.824;2023-11-19T09:05:10;20.70;85.80
66608;DHT22;53462;39.616;8.824;2023-11-19T09:07:36;22.80;89.70
66608;DHT22;53462;39.616;8.824;2023-11-19T09:10:03;24.10;72.30
66608;DHT22;53462;39.616;8.824;2023-11-19T09:12:31;21.90;78.20
66608;DHT22;53462;39.616;8.824;2023-11-19T09:14:57;20.80;83.80
66608;DHT22;53462;39.616;8.824;2023-11-19T09:17:23;20.70;88.70
66608;DHT22;53462;39.616;8.824;2023-11-19T09:19:49;20.60;86.10
66608;DHT22;53462;39.616;8.824;2023-11-19T09:22:15;21.20;87.10
66608;DHT22;53462;39.616;8.824;2023-11-19T09:24:41;21.40;85.30
66608;DHT22;53462;39.616;8.824;2023-11-19T09:27:07;25.60;70.10
66608;DHT22;53462;39.616;8.824;2023-11-19T09:29:32;26.70;67.50
66608;DHT22;53462;39.616;8.824;2023-11-19T09:31:58;29.80;55.50
66608;DHT22;53462;39.616;8.824;2023-11-19T09:34:24;30.90;52.20
66608;DHT22;53462;39.616;8.824;2023-11-19T09:36:50;27.80;56.00
66608;DHT22;53462;39.616;8.824;2023-11-19T09:39:16;24.80;65.00
66608;DHT22;53462;39.616;8.824;2023-11-19T09:41:44;22.60;73.00
66608;DHT22;53462;39.616;8.824;2023-11-19T09:44:13;24.40;70.00
66608;DHT22;53462;39.616;8.824;2023-11-19T09:46:43;26.00;65.40
66608;DHT22;53462;39.616;8.824;2023-11-19T09:49:10;26.40;63.50
66608;DHT22;53462;39.616;8.824;2023-11-19T09:51:36;24.90;67.30
66608;DHT22;53462;39.616;8.824;2023-11-19T09:54:02;26.00;64.90
66608;DHT22;53462;39.616;8.824;2023-11-19T09:56:29;25.80;64.60
66608;DHT22;53462;39.616;8.824;2023-11-19T09:58:59;25.20;66.50
66608;DHT22;53462;39.616;8.824;2023-11-19T10:01:25;24.70;68.00
66608;DHT22;53462;39.616;8.824;2023-11-19T10:03:52;23.40;70.90
66608;DHT22;53462;39.616;8.824;2023-11-19T10:06:20;24.10;70.50
66608;DHT22;53462;39.616;8.824;2023-11-19T10:08:47;23.10;73.10
66608;DHT22;53462;39.616;8.824;2023-11-19T10:11:13;22.20;76.80
66608;DHT22;53462;39.616;8.824;2023-11-19T10:13:40;21.40;81.00
66608;DHT22;53462;39.616;8.824;2023-11-19T10:16:14;24.30;74.40
66608;DHT22;53462;39.616;8.824;2023-11-19T10:18:47;30.20;55.30
66608;DHT22;53462;39.616;8.824;2023-11-19T10:21:13;33.30;46.10
66608;DHT22;53462;39.616;8.824;2023-11-19T10:23:49;33.60;43.10
66608;DHT22;53462;39.616;8.824;2023-11-19T10:26:22;34.00;41.50
66608;DHT22;53462;39.616;8.824;2023-11-19T10:28:48;31.10;44.10
66608;DHT22;53462;39.616;8.824;2023-11-19T10:31:18;26.20;56.70
66608;DHT22;53462;39.616;8.824;2023-11-19T10:33:45;23.40;66.60
66608;DHT22;53462;39.616;8.824;2023-11-19T10:36:14;22.80;71.30
66608;DHT22;53462;39.616;8.824;2023-11-19T10:38:40;24.40;64.20
66608;DHT22;53462;39.616;8.824;2023-11-19T10:41:29;25.30;64.00
66608;DHT22;53462;39.616;8.824;2023-11-19T10:43:56;24.60;63.10
66608;DHT22;53462;39.616;8.824;2023-11-19T10:46:22;23.00;68.70
66608;DHT22;53462;39.616;8.824;2023-11-19T10:48:52;21.90;73.40
66608;DHT22;53462;39.616;8.824;2023-11-19T10:51:19;21.30;77.10
66608;DHT22;53462;39.616;8.824;2023-11-19T10:53:49;21.20;78.30
66608;DHT22;53462;39.616;8.824;2023-11-19T10:56:20;21.90;77.90
66608;DHT22;53462;39.616;8.824;2023-11-19T10:58:50;22.70;72.10
66608;DHT22;53462;39.616;8.824;2023-11-19T11:01:19;22.60;71.90
66608;DHT22;53462;39.616;8.824;2023-11-19T11:03:51;22.30;73.10
66608;DHT22;53462;39.616;8.824;2023-11-19T11:06:17;22.20;73.80
66608;DHT22;53462;39.616;8.824;2023-11-19T11:08:45;22.90;71.40
66608;DHT22;53462;39.616;8.824;2023-11-19T11:11:14;23.80;67.60
66608;DHT22;53462;39.616;8.824;2023-11-19T11:13:43;23.00;68.10
66608;DHT22;53462;39.616;8.824;2023-11-19T11:16:10;22.20;72.40
66608;DHT22;53462;39.616;8.824;2023-11-19T11:18:36;22.00;73.70
66608;DHT22;53462;39.616;8.824;2023-11-19T11:21:09;21.80;74.60
66608;DHT22;53462;39.616;8.824;2023-11-19T11:29:31;21.70;76.20
66608;DHT22;53462;39.616;8.824;2023-11-19T11:37:49;23.90;67.10
66608;DHT22;53462;39.616;8.824;2023-11-19T11:40:17;24.00;67.20
66608;DHT22;53462;39.616;8.824;2023-11-19T11:42:44;24.20;66.60
66608;DHT22;53462;39.616;8.824;2023-11-19T11:45:12;24.40;64.20
66608;DHT22;53462;39.616;8.824;2023-11-19T11:48:06;23.70;64.30
66608;DHT22;53462;39.616;8.824;2023-11-19T11:50:32;23.50;66.10
66608;DHT22;53462;39.616;8.824;2023-11-19T11:55:36;22.70;69.10
66608;DHT22;53462;39.616;8.824;2023-11-19T11:58:05;22.70;69.80
66608;DHT22;53462;39.616;8.824;2023-11-19T12:00:32;23.60;68.00
66608;DHT22;53462;39.616;8.824;2023-11-19T12:03:04;24.10;65.70
66608;DHT22;53462;39.616;8.824;2023-11-19T12:05:30;24.00;63.20
66608;DHT22;53462;39.616;8.824;2023-11-19T12:08:01;24.20;62.70
66608;DHT22;53462;39.616;8.824;2023-11-19T12:10:32;23.90;62.30
66608;DHT22;53462;39.616;8.824;2023-11-19T12:13:01;24.00;60.80
66608;DHT22;53462;39.616;8.824;2023-11-19T12:15:28;23.90;61.10
66608;DHT22;53462;39.616;8.824;2023-11-19T12:17:54;23.80;60.00
66608;DHT22;53462;39.616;8.824;2023-11-19T12:20:23;22.90;61.70
66608;DHT22;53462;39.616;8.824;2023-11-19T12:22:50;22.50;65.10
66608;DHT22;53462;39.616;8.824;2023-11-19T12:25:18;23.00;64.00
66608;DHT22;53462;39.616;8.824;2023-11-19T12:27:50;22.90;63.30
66608;DHT22;53462;39.616;8.824;2023-11-19T12:30:23;23.40;62.50
66608;DHT22;53462;39.616;8.824;2023-11-19T12:32:54;23.40;62.00
66608;DHT22;53462;39.616;8.824;2023-11-19T12:35:20;23.70;61.80
66608;DHT22;53462;39.616;8.824;2023-11-19T12:37:48;23.50;61.70
66608;DHT22;53462;39.616;8.824;2023-11-19T12:42:45;23.00;62.10
66608;DHT22;53462;39.616;8.824;2023-11-19T12:45:11;23.10;61.80
66608;DHT22;53462;39.616;8.824;2023-11-19T12:47:38;23.40;60.50
66608;DHT22;53462;39.616;8.824;2023-11-19T12:50:05;23.60;60.90
66608;DHT22;53462;39.616;8.824;2023-11-19T12:52:32;23.60;61.10
66608;DHT22;53462;39.616;8.824;2023-11-19T12:54:58;23.70;60.00
66608;DHT22;53462;39.616;8.824;2023-11-19T12:57:42;23.90;59.80
66608;DHT22;53462;39.616;8.824;2023-11-19T13:00:19;24.10;60.00
66608;DHT22;53462;39.616;8.824;2023-11-19T13:02:49;24.20;59.40
66608;DHT22;53462;39.616;8.824;2023-11-19T13:05:28;24.10;61.10
66608;DHT22;53462;39.616;8.824;2023-11-19T13:08:05;24.30;62.00
66608;DHT22;53462;39.616;8.824;2023-11-19T13:10:32;23.90;61.30
66608;DHT22;53462;39.616;8.824;2023-11-19T13:13:05;23.60;62.40
66608;DHT22;53462;39.616;8.824;2023-11-19T13:15:32;23.10;65.00
66608;DHT22;53462;39.616;8.824;2023-11-19T13:17:59;23.20;65.80
66608;DHT22;53462;39.616;8.824;2023-11-19T13:20:25;24.00;63.60
66608;DHT22;53462;39.616;8.824;2023-11-19T13:22:59;23.90;63.00
66608;DHT22;53462;39.616;8.824;2023-11-19T13:25:26;24.00;62.60
66608;DHT22;53462;39.616;8.824;2023-11-19T13:27:52;23.20;64.90
66608;DHT22;53462;39.616;8.824;2023-11-19T13:30:18;22.20;68.60
66608;DHT22;53462;39.616;8.824;2023-11-19T13:32:44;21.70;71.30
66608;DHT22;53462;39.616;8.824;2023-11-19T13:35:12;21.40;73.90
66608;DHT22;53462;39.616;8.824;2023-11-19T13:37:39;21.30;74.50
66608;DHT22;53462;39.616;8.824;2023-11-19T13:40:08;21.10;76.00
66608;DHT22;53462;39.616;8.824;2023-11-19T13:42:38;20.90;77.30
66608;DHT22;53462;39.616;8.824;2023-11-19T13:45:11;20.80;78.70
66608;DHT22;53462;39.616;8.824;2023-11-19T13:47:42;20.60;79.80
66608;DHT22;53462;39.616;8.824;2023-11-19T13:50:13;20.40;80.60
66608;DHT22;53462;39.616;8.824;2023-11-19T13:52:40;20.30;81.40
66608;DHT22;53462;39.616;8.824;2023-11-19T13:55:08;20.40;80.60
66608;DHT22;53462;39.616;8.824;2023-11-19T13:57:38;21.00;78.70
66608;DHT22;53462;39.616;8.824;2023-11-19T14:00:05;20.70;78.70
66608;DHT22;53462;39.616;8.824;2023-11-19T14:02:34;20.70;78.90
66608;DHT22;53462;39.616;8.824;2023-11-19T14:05:00;20.30;80.60
66608;DHT22;53462;39.616;8.824;2023-11-19T14:07:26;20.00;82.40
66608;DHT22;53462;39.616;8.824;2023-11-19T14:09:53;20.90;86.40
66608;DHT22;53462;39.616;8.824;2023-11-19T14:12:19;20.60;80.50
66608;DHT22;53462;39.616;8.824;2023-11-19T14:14:45;20.50;83.20
66608;DHT22;53462;39.616;8.824;2023-11-19T14:17:14;21.30;79.30
66608;DHT22;53462;39.616;8.824;2023-11-19T14:19:41;21.10;79.90
66608;DHT22;53462;39.616;8.824;2023-11-19T14:22:08;21.00;79.70
66608;DHT22;53462;39.616;8.824;2023-11-19T14:24:34;20.80;80.00
66608;DHT22;53462;39.616;8.824;2023-11-19T14:27:01;20.70;80.10
66608;DHT22;53462;39.616;8.824;2023-11-19T14:29:27;20.60;79.70
66608;DHT22;53462;39.616;8.824;2023-11-19T14:31:55;20.50;78.90
66608;DHT22;53462;39.616;8.824;2023-11-19T14:34:22;20.40;78.90
66608;DHT22;53462;39.616;8.824;2023-11-19T14:36:48;20.30;78.70
66608;DHT22;53462;39.616;8.824;2023-11-19T14:39:14;20.40;79.50
66608;DHT22;53462;39.616;8.824;2023-11-19T14:41:42;20.30;80.10
66608;DHT22;53462;39.616;8.824;2023-11-19T14:44:07;20.30;79.60
66608;DHT22;53462;39.616;8.824;2023-11-19T14:46:35;20.40;78.80
66608;DHT22;53462;39.616;8.824;2023-11-19T14:49:01;20.30;77.30
66608;DHT22;53462;39.616;8.824;2023-11-19T14:51:27;20.30;78.10
66608;DHT22;53462;39.616;8.824;2023-11-19T14:53:53;20.40;77.40
66608;DHT22;53462;39.616;8.824;2023-11-19T14:56:19;20.50;77.60
66608;DHT22;53462;39.616;8.824;2023-11-19T14:58:45;20.60;77.60
66608;DHT22;53462;39.616;8.824;2023-11-19T15:01:13;20.60;78.20
66608;DHT22;53462;39.616;8.824;2023-11-19T15:03:39;20.50;79.50
66608;DHT22;53462;39.616;8.824;2023-11-19T15:06:06;20.40;80.70
66608;DHT22;53462;39.616;8.824;2023-11-19T15:08:33;20.30;81.60
66608;DHT22;53462;39.616;8.824;2023-11-19T15:11:00;20.10;82.20
66608;DHT22;53462;39.616;8.824;2023-11-19T15:13:27;20.10;81.80
66608;DHT22;53462;39.616;8.824;2023-11-19T15:15:53;20.10;82.20
66608;DHT22;53462;39.616;8.824;2023-11-19T15:18:21;20.10;81.90
66608;DHT22;53462;39.616;8.824;2023-11-19T15:20:46;19.90;81.00
66608;DHT22;53462;39.616;8.824;2023-11-19T15:23:13;19.90;81.40
66608;DHT22;53462;39.616;8.824;2023-11-19T15:25:39;19.80;81.60
66608;DHT22;53462;39.616;8.824;2023-11-19T15:28:05;19.60;82.60
66608;DHT22;53462;39.616;8.824;2023-11-19T15:30:31;19.60;83.60
66608;DHT22;53462;39.616;8.824;2023-11-19T15:32:56;19.60;84.70
66608;DHT22;53462;39.616;8.824;2023-11-19T15:35:22;19.40;85.50
66608;DHT22;53462;39.616;8.824;2023-11-19T15:37:48;19.40;86.00
66608;DHT22;53462;39.616;8.824;2023-11-19T15:40:14;19.30;86.10
66608;DHT22;53462;39.616;8.824;2023-11-19T15:42:41;19.20;86.20
66608;DHT22;53462;39.616;8.824;2023-11-19T15:45:09;19.10;86.60
66608;DHT22;53462;39.616;8.824;2023-11-19T15:47:35;19.00;86.80